sensor_id;sensor_type;location;lat;lon;timestamp;temperature;humidity
11035;DHT22;5571;48.110;-1.706;2023-06-26T00:00:04;20.30;99.90
11035;DHT22;5571;48.110;-1.706;2023-06-26T00:02:30;20.40;99.90
11035;DHT22;5571;48.110;-1.706;2023-06-26T00:04:58;20.40;99.90
11035;DHT22;5571;48.110;-1.706;2023-06-26T00:07:24;20.40;99.90
11035;DHT22;5571;48.110;-1.706;2023-06-26T00:09:49;20.50;99.90
11035;DHT22;5571;48.110;-1.706;2023-06-26T00:12:15;20.50;99.90
11035;DHT22;5571;48.110;-1.706;2023-06-26T00:14:40;20.60;99.90
11035;DHT22;5571;48.110;-1.706;2023-06-26T00:17:07;20.40;99.90
11035;DHT22;5571;48.110;-1.706;2023-06-26T00:19:33;20.40;99.90
11035;DHT22;5571;48.110;-1.706;2023-06-26T00:21:59;20.40;99.90
11035;DHT22;5571;48.110;-1.706;2023-06-26T00:24:24;20.40;99.90
11035;DHT22;5571;48.110;-1.706;2023-06-26T00:26:50;20.20;99.90
11035;DHT22;5571;48.110;-1.706;2023-06-26T00:29:16;20.20;99.90
11035;DHT22;5571;48.110;-1.706;2023-06-26T00:31:41;20.10;99.90
11035;DHT22;5571;48.110;-1.706;2023-06-26T00:34:07;20.00;99.90
11035;DHT22;5571;48.110;-1.706;2023-06-26T00:36:33;20.00;99.90
11035;DHT22;5571;48.110;-1.706;2023-06-26T00:38:59;19.90;99.90
11035;DHT22;5571;48.110;-1.706;2023-06-26T00:41:24;19.80;99.90
11035;DHT22;5571;48.110;-1.706;2023-06-26T00:43:50;19.80;99.90
11035;DHT22;5571;48.110;-1.706;2023-06-26T00:46:16;19.60;99.90
11035;DHT22;5571;48.110;-1.706;2023-06-26T00:48:44;19.70;99.90
11035;DHT22;5571;48.110;-1.706;2023-06-26T00:51:11;19.60;99.90
11035;DHT22;5571;48.110;-1.706;2023-06-26T00:53:37;19.50;99.90
11035;DHT22;5571;48.110;-1.706;2023-06-26T00:56:03;19.50;99.90
11035;DHT22;5571;48.110;-1.706;2023-06-26T00:58:29;19.50;99.90
11035;DHT22;5571;48.110;-1.706;2023-06-26T01:00:54;19.40;99.90
11035;DHT22;5571;48.110;-1.706;2023-06-26T01:03:22;19.40;99.90
11035;DHT22;5571;48.110;-1.706;2023-06-26T01:05:48;19.40;99.90
11035;DHT22;5571;48.110;-1.706;2023-06-26T01:08:16;19.40;99.90
11035;DHT22;5571;48.110;-1.706;2023-06-26T01:10:43;19.40;99.90
11035;DHT22;5571;48.110;-1.706;2023-06-26T01:13:08;19.30;99.90
11035;DHT22;5571;48.110;-1.706;2023-06-26T01:15:34;19.30;99.90
11035;DHT22;5571;48.110;-1.706;2023-06-26T01:18:01;19.20;99.90
11035;DHT22;5571;48.110;-1.706;2023-06-26T01:20:32;19.10;99.90
11035;DHT22;5571;48.110;-1.706;2023-06-26T01:23:05;19.00;99.90
11035;DHT22;5571;48.110;-1.706;2023-06-26T01:25:46;19.00;99.90
11035;DHT22;5571;48.110;-1.706;2023-06-26T01:28:17;19.00;99.90
11035;DHT22;5571;48.110;-1.706;2023-06-26T01:30:44;19.10;99.90
11035;DHT22;5571;48.110;-1.706;2023-06-26T01:33:12;19.20;99.90
11035;DHT22;5571;48.110;-1.706;2023-06-26T01:35:38;19.10;99.90
11035;DHT22;5571;48.110;-1.706;2023-06-26T01:38:31;19.10;99.90
11035;DHT22;5571;48.110;-1.706;2023-06-26T01:40:57;19.00;99.90
11035;DHT22;5571;48.110;-1.706;2023-06-26T01:45:51;19.00;99.90
11035;DHT22;5571;48.110;-1.706;2023-06-26T01:48:22;19.00;99.90
11035;DHT22;5571;48.110;-1.706;2023-06-26T01:50:51;18.90;99.90
11035;DHT22;5571;48.110;-1.706;2023-06-26T01:53:21;18.70;99.90
11035;DHT22;5571;48.110;-1.706;2023-06-26T01:55:55;18.70;99.90
11035;DHT22;5571;48.110;-1.706;2023-06-26T01:58:24;18.50;99.90
11035;DHT22;5571;48.110;-1.706;2023-06-26T02:00:50;18.50;99.90
11035;DHT22;5571;48.110;-1.706;2023-06-26T02:03:16;18.60;99.90
11035;DHT22;5571;48.110;-1.706;2023-06-26T02:05:42;18.60;99.90
11035;DHT22;5571;48.110;-1.706;2023-06-26T02:08:08;18.70;99.90
11035;DHT22;5571;48.110;-1.706;2023-06-26T02:10:34;18.70;99.90
11035;DHT22;5571;48.110;-1.706;2023-06-26T02:13:00;18.70;99.90
11035;DHT22;5571;48.110;-1.706;2023-06-26T02:15:26;18.70;99.90
11035;DHT22;5571;48.110;-1.706;2023-06-26T02:17:52;18.70;99.90
11035;DHT22;5571;48.110;-1.706;2023-06-26T02:20:17;18.70;99.90
11035;DHT22;5571;48.110;-1.706;2023-06-26T02:22:43;18.80;99.90
11035;DHT22;5571;48.110;-1.706;2023-06-26T02:25:10;18.70;99.90
11035;DHT22;5571;48.110;-1.706;2023-06-26T02:27:38;18.70;99.90
11035;DHT22;5571;48.110;-1.706;2023-06-26T02:30:04;18.80;99.90
11035;DHT22;5571;48.110;-1.706;2023-06-26T02:32:30;18.70;99.90
11035;DHT22;5571;48.110;-1.706;2023-06-26T02:34:56;18.70;99.90
11035;DHT22;5571;48.110;-1.706;2023-06-26T02:37:21;18.70;99.90
11035;DHT22;5571;48.110;-1.706;2023-06-26T02:39:47;18.50;99.90
11035;DHT22;5571;48.110;-1.706;2023-06-26T02:42:13;18.60;99.90
11035;DHT22;5571;48.110;-1.706;2023-06-26T02:44:38;18.50;99.90
11035;DHT22;5571;48.110;-1.706;2023-06-26T02:47:04;18.50;99.90
11035;DHT22;5571;48.110;-1.706;2023-06-26T02:49:30;18.30;99.90
11035;DHT22;5571;48.110;-1.706;2023-06-26T02:51:56;18.20;99.90
11035;DHT22;5571;48.110;-1.706;2023-06-26T02:54:21;18.20;99.90
11035;DHT22;5571;48.110;-1.706;2023-06-26T02:56:47;18.10;99.90
11035;DHT22;5571;48.110;-1.706;2023-06-26T02:59:13;18.00;99.90
11035;DHT22;5571;48.110;-1.706;2023-06-26T03:01:39;18.00;99.90
11035;DHT22;5571;48.110;-1.706;2023-06-26T03:04:04;18.00;99.90
11035;DHT22;5571;48.110;-1.706;2023-06-26T03:06:30;18.10;99.90
11035;DHT22;5571;48.110;-1.706;2023-06-26T03:08:56;18.00;99.90
11035;DHT22;5571;48.110;-1.706;2023-06-26T03:11:21;18.00;99.90
11035;DHT22;5571;48.110;-1.706;2023-06-26T03:13:47;17.90;99.90
11035;DHT22;5571;48.110;-1.706;2023-06-26T03:16:12;17.90;99.90
11035;DHT22;5571;48.110;-1.706;2023-06-26T03:18:38;17.90;99.90
11035;DHT22;5571;48.110;-1.706;2023-06-26T03:21:05;18.00;99.90
11035;DHT22;5571;48.110;-1.706;2023-06-26T03:23:30;18.00;99.90
11035;DHT22;5571;48.110;-1.706;2023-06-26T03:25:56;17.90;99.90
11035;DHT22;5571;48.110;-1.706;2023-06-26T03:28:22;17.90;99.90
11035;DHT22;5571;48.110;-1.706;2023-06-26T03:30:47;17.90;99.90
11035;DHT22;5571;48.110;-1.706;2023-06-26T03:33:13;17.90;99.90
11035;DHT22;5571;48.110;-1.706;2023-06-26T03:35:38;17.80;99.90
11035;DHT22;5571;48.110;-1.706;2023-06-26T03:38:04;17.80;99.90
11035;DHT22;5571;48.110;-1.706;2023-06-26T03:40:30;17.90;99.90
11035;DHT22;5571;48.110;-1.706;2023-06-26T03:42:56;17.90;99.90
11035;DHT22;5571;48.110;-1.706;2023-06-26T03:45:22;17.90;99.90
11035;DHT22;5571;48.110;-1.706;2023-06-26T03:47:47;17.80;99.90
11035;DHT22;5571;48.110;-1.706;2023-06-26T03:50:17;17.80;99.90
11035;DHT22;5571;48.110;-1.706;2023-06-26T03:52:43;17.80;99.90
11035;DHT22;5571;48.110;-1.706;2023-06-26T03:55:09;17.80;99.90
11035;DHT22;5571;48.110;-1.706;2023-06-26T03:57:34;17.70;99.90
11035;DHT22;5571;48.110;-1.706;2023-06-26T04:00:00;17.50;99.90
11035;DHT22;5571;48.110;-1.706;2023-06-26T04:02:25;17.50;99.90
11035;DHT22;5571;48.110;-1.706;2023-06-26T04:04:51;17.50;99.90
11035;DHT22;5571;48.110;-1.706;2023-06-26T04:07:18;17.60;99.90
11035;DHT22;5571;48.110;-1.706;2023-06-26T04:09:43;17.40;99.90
11035;DHT22;5571;48.110;-1.706;2023-06-26T04:12:09;17.50;99.90
11035;DHT22;5571;48.110;-1.706;2023-06-26T04:14:35;17.50;99.90
11035;DHT22;5571;48.110;-1.706;2023-06-26T04:17:00;17.50;99.90
11035;DHT22;5571;48.110;-1.706;2023-06-26T04:19:29;17.50;99.90
11035;DHT22;5571;48.110;-1.706;2023-06-26T04:21:54;17.50;99.90
11035;DHT22;5571;48.110;-1.706;2023-06-26T04:24:20;17.50;99.90
11035;DHT22;5571;48.110;-1.706;2023-06-26T04:26:46;17.50;99.90
11035;DHT22;5571;48.110;-1.706;2023-06-26T04:29:11;17.40;99.90
11035;DHT22;5571;48.110;-1.706;2023-06-26T04:31:38;17.30;99.90
11035;DHT22;5571;48.110;-1.706;2023-06-26T04:34:04;17.40;99.90
11035;DHT22;5571;48.110;-1.706;2023-06-26T04:36:30;17.30;99.90
11035;DHT22;5571;48.110;-1.706;2023-06-26T04:38:57;17.30;99.90
11035;DHT22;5571;48.110;-1.706;2023-06-26T04:41:24;17.20;99.90
11035;DHT22;5571;48.110;-1.706;2023-06-26T04:43:50;17.30;99.90
11035;DHT22;5571;48.110;-1.706;2023-06-26T04:46:15;17.40;99.90
11035;DHT22;5571;48.110;-1.706;2023-06-26T04:48:41;17.30;99.90
11035;DHT22;5571;48.110;-1.706;2023-06-26T04:51:06;17.40;99.90
11035;DHT22;5571;48.110;-1.706;2023-06-26T04:53:32;17.40;99.90
11035;DHT22;5571;48.110;-1.706;2023-06-26T04:55:58;17.40;99.90
11035;DHT22;5571;48.110;-1.706;2023-06-26T04:58:23;17.40;99.90
11035;DHT22;5571;48.110;-1.706;2023-06-26T05:00:49;17.40;99.90
11035;DHT22;5571;48.110;-1.706;2023-06-26T05:03:16;17.40;99.90
11035;DHT22;5571;48.110;-1.706;2023-06-26T05:05:42;17.40;99.90
11035;DHT22;5571;48.110;-1.706;2023-06-26T05:08:20;17.30;99.90
11035;DHT22;5571;48.110;-1.706;2023-06-26T05:10:46;17.30;99.90
11035;DHT22;5571;48.110;-1.706;2023-06-26T05:13:12;17.30;99.90
11035;DHT22;5571;48.110;-1.706;2023-06-26T05:15:41;17.40;99.90
11035;DHT22;5571;48.110;-1.706;2023-06-26T05:18:07;17.40;99.90
11035;DHT22;5571;48.110;-1.706;2023-06-26T05:20:34;17.50;99.90
11035;DHT22;5571;48.110;-1.706;2023-06-26T05:23:02;17.50;99.90
11035;DHT22;5571;48.110;-1.706;2023-06-26T05:25:29;17.50;99.90
11035;DHT22;5571;48.110;-1.706;2023-06-26T05:27:56;17.60;99.90
11035;DHT22;5571;48.110;-1.706;2023-06-26T05:30:22;17.50;99.90
11035;DHT22;5571;48.110;-1.706;2023-06-26T05:32:51;17.70;99.90
11035;DHT22;5571;48.110;-1.706;2023-06-26T05:35:17;17.70;99.90
11035;DHT22;5571;48.110;-1.706;2023-06-26T05:37:43;17.80;99.90
11035;DHT22;5571;48.110;-1.706;2023-06-26T05:40:10;17.90;99.90
11035;DHT22;5571;48.110;-1.706;2023-06-26T05:42:36;17.80;99.90
11035;DHT22;5571;48.110;-1.706;2023-06-26T05:45:01;17.70;99.90
11035;DHT22;5571;48.110;-1.706;2023-06-26T05:47:27;17.70;99.90
11035;DHT22;5571;48.110;-1.706;2023-06-26T05:49:53;17.90;99.90
11035;DHT22;5571;48.110;-1.706;2023-06-26T05:52:19;17.80;99.90
11035;DHT22;5571;48.110;-1.706;2023-06-26T05:54:44;17.80;99.90
11035;DHT22;5571;48.110;-1.706;2023-06-26T05:57:12;17.80;99.90
11035;DHT22;5571;48.110;-1.706;2023-06-26T05:59:40;17.80;99.90
11035;DHT22;5571;48.110;-1.706;2023-06-26T06:02:07;17.90;99.90
11035;DHT22;5571;48.110;-1.706;2023-06-26T06:04:32;18.00;99.90
11035;DHT22;5571;48.110;-1.706;2023-06-26T06:06:58;17.90;99.90
11035;DHT22;5571;48.110;-1.706;2023-06-26T06:09:23;18.00;99.90
11035;DHT22;5571;48.110;-1.706;2023-06-26T06:11:50;18.10;99.90
11035;DHT22;5571;48.110;-1.706;2023-06-26T06:14:16;18.00;99.90
11035;DHT22;5571;48.110;-1.706;2023-06-26T06:16:42;17.90;99.90
11035;DHT22;5571;48.110;-1.706;2023-06-26T06:19:08;17.80;99.90
11035;DHT22;5571;48.110;-1.706;2023-06-26T06:21:36;17.80;99.90
11035;DHT22;5571;48.110;-1.706;2023-06-26T06:24:02;17.90;99.90
11035;DHT22;5571;48.110;-1.706;2023-06-26T06:26:28;18.10;99.90
11035;DHT22;5571;48.110;-1.706;2023-06-26T06:28:54;18.00;99.90
11035;DHT22;5571;48.110;-1.706;2023-06-26T06:31:19;18.20;99.90
11035;DHT22;5571;48.110;-1.706;2023-06-26T06:33:45;18.20;99.90
11035;DHT22;5571;48.110;-1.706;2023-06-26T06:36:11;18.20;99.90
11035;DHT22;5571;48.110;-1.706;2023-06-26T06:38:37;18.30;99.90
11035;DHT22;5571;48.110;-1.706;2023-06-26T06:41:02;18.60;99.90
11035;DHT22;5571;48.110;-1.706;2023-06-26T06:43:28;18.50;99.90
11035;DHT22;5571;48.110;-1.706;2023-06-26T06:45:53;18.40;99.90
11035;DHT22;5571;48.110;-1.706;2023-06-26T06:48:19;18.40;99.90
11035;DHT22;5571;48.110;-1.706;2023-06-26T06:50:45;18.40;99.90
11035;DHT22;5571;48.110;-1.706;2023-06-26T06:53:10;18.70;99.90
11035;DHT22;5571;48.110;-1.706;2023-06-26T06:55:36;18.90;99.90
11035;DHT22;5571;48.110;-1.706;2023-06-26T06:58:02;19.10;99.90
11035;DHT22;5571;48.110;-1.706;2023-06-26T07:00:28;19.30;99.90
11035;DHT22;5571;48.110;-1.706;2023-06-26T07:02:53;19.40;99.90
11035;DHT22;5571;48.110;-1.706;2023-06-26T07:05:19;19.30;99.90
11035;DHT22;5571;48.110;-1.706;2023-06-26T07:07:45;19.30;99.90
11035;DHT22;5571;48.110;-1.706;2023-06-26T07:10:12;19.50;99.90
11035;DHT22;5571;48.110;-1.706;2023-06-26T07:12:38;19.40;99.90
11035;DHT22;5571;48.110;-1.706;2023-06-26T07:15:05;19.60;99.90
11035;DHT22;5571;48.110;-1.706;2023-06-26T07:17:32;19.80;99.90
11035;DHT22;5571;48.110;-1.706;2023-06-26T07:19:58;19.90;99.90
11035;DHT22;5571;48.110;-1.706;2023-06-26T07:22:24;20.00;99.90
11035;DHT22;5571;48.110;-1.706;2023-06-26T07:24:49;20.10;99.90
11035;DHT22;5571;48.110;-1.706;2023-06-26T07:27:15;20.20;99.90
11035;DHT22;5571;48.110;-1.706;2023-06-26T07:29:42;20.20;99.90
11035;DHT22;5571;48.110;-1.706;2023-06-26T07:32:08;20.10;99.90
11035;DHT22;5571;48.110;-1.706;2023-06-26T07:34:33;20.10;99.90
11035;DHT22;5571;48.110;-1.706;2023-06-26T07:36:59;20.10;99.90
11035;DHT22;5571;48.110;-1.706;2023-06-26T07:39:25;20.20;99.90
11035;DHT22;5571;48.110;-1.706;2023-06-26T07:41:50;20.30;99.90
11035;DHT22;5571;48.110;-1.706;2023-06-26T07:44:16;20.40;99.90
11035;DHT22;5571;48.110;-1.706;2023-06-26T07:46:42;20.40;99.90
11035;DHT22;5571;48.110;-1.706;2023-06-26T07:49:07;20.30;99.90
11035;DHT22;5571;48.110;-1.706;2023-06-26T07:51:33;20.30;99.90
11035;DHT22;5571;48.110;-1.706;2023-06-26T07:53:58;20.40;99.90
11035;DHT22;5571;48.110;-1.706;2023-06-26T07:56:24;20.40;99.90
11035;DHT22;5571;48.110;-1.706;2023-06-26T07:58:50;20.30;99.90
11035;DHT22;5571;48.110;-1.706;2023-06-26T08:01:16;20.50;99.90
11035;DHT22;5571;48.110;-1.706;2023-06-26T08:03:41;20.50;99.90
11035;DHT22;5571;48.110;-1.706;2023-06-26T08:06:07;20.60;99.90
11035;DHT22;5571;48.110;-1.706;2023-06-26T08:08:33;20.70;99.90
11035;DHT22;5571;48.110;-1.706;2023-06-26T08:10:58;20.80;99.90
11035;DHT22;5571;48.110;-1.706;2023-06-26T08:13:25;20.80;99.90
11035;DHT22;5571;48.110;-1.706;2023-06-26T08:15:50;20.90;99.90
11035;DHT22;5571;48.110;-1.706;2023-06-26T08:18:16;21.00;99.90
11035;DHT22;5571;48.110;-1.706;2023-06-26T08:20:42;21.20;99.90
11035;DHT22;5571;48.110;-1.706;2023-06-26T08:23:07;21.30;99.90
11035;DHT22;5571;48.110;-1.706;2023-06-26T08:25:33;21.40;99.90
11035;DHT22;5571;48.110;-1.706;2023-06-26T08:27:59;21.60;99.90
11035;DHT22;5571;48.110;-1.706;2023-06-26T08:30:24;21.50;99.90
11035;DHT22;5571;48.110;-1.706;2023-06-26T08:32:56;21.60;99.90
11035;DHT22;5571;48.110;-1.706;2023-06-26T08:35:22;21.40;99.90
11035;DHT22;5571;48.110;-1.706;2023-06-26T08:37:48;21.20;99.90
11035;DHT22;5571;48.110;-1.706;2023-06-26T08:40:17;21.40;99.90
11035;DHT22;5571;48.110;-1.706;2023-06-26T08:42:43;21.40;99.90
11035;DHT22;5571;48.110;-1.706;2023-06-26T08:45:08;21.50;99.90
11035;DHT22;5571;48.110;-1.706;2023-06-26T08:47:35;21.60;99.90
11035;DHT22;5571;48.110;-1.706;2023-06-26T08:52:44;21.00;99.90
11035;DHT22;5571;48.110;-1.706;2023-06-26T08:55:12;21.20;99.90
11035;DHT22;5571;48.110;-1.706;2023-06-26T08:57:40;21.40;99.90
11035;DHT22;5571;48.110;-1.706;2023-06-26T09:00:06;21.30;99.90
11035;DHT22;5571;48.110;-1.706;2023-06-26T09:02:35;21.50;99.90
11035;DHT22;5571;48.110;-1.706;2023-06-26T09:05:02;21.60;99.90
11035;DHT22;5571;48.110;-1.706;2023-06-26T09:07:28;21.70;99.90
11035;DHT22;5571;48.110;-1.706;2023-06-26T09:09:54;21.60;99.90
11035;DHT22;5571;48.110;-1.706;2023-06-26T09:12:20;21.50;99.90
11035;DHT22;5571;48.110;-1.706;2023-06-26T09:14:46;21.20;99.90
11035;DHT22;5571;48.110;-1.706;2023-06-26T09:17:13;20.90;99.90
11035;DHT22;5571;48.110;-1.706;2023-06-26T09:19:38;21.20;99.90
11035;DHT22;5571;48.110;-1.706;2023-06-26T09:22:04;21.60;99.90
11035;DHT22;5571;48.110;-1.706;2023-06-26T09:24:36;22.00;99.90
11035;DHT22;5571;48.110;-1.706;2023-06-26T09:27:02;22.30;99.90
11035;DHT22;5571;48.110;-1.706;2023-06-26T09:29:28;22.50;99.90
11035;DHT22;5571;48.110;-1.706;2023-06-26T09:31:56;22.60;99.90
11035;DHT22;5571;48.110;-1.706;2023-06-26T09:34:21;22.80;99.90
11035;DHT22;5571;48.110;-1.706;2023-06-26T09:36:47;22.90;99.90
11035;DHT22;5571;48.110;-1.706;2023-06-26T09:39:14;22.50;99.90
11035;DHT22;5571;48.110;-1.706;2023-06-26T09:41:44;22.30;99.90
11035;DHT22;5571;48.110;-1.706;2023-06-26T09:44:11;22.40;99.90
11035;DHT22;5571;48.110;-1.706;2023-06-26T09:46:38;22.50;99.90
11035;DHT22;5571;48.110;-1.706;2023-06-26T09:49:09;22.60;99.90
11035;DHT22;5571;48.110;-1.706;2023-06-26T09:51:38;22.50;99.90
11035;DHT22;5571;48.110;-1.706;2023-06-26T09:54:04;22.80;99.90
11035;DHT22;5571;48.110;-1.706;2023-06-26T09:56:31;22.90;99.90
11035;DHT22;5571;48.110;-1.706;2023-06-26T09:58:58;22.70;99.90
11035;DHT22;5571;48.110;-1.706;2023-06-26T10:01:25;22.60;99.90
11035;DHT22;5571;48.110;-1.706;2023-06-26T10:03:51;22.40;99.90
11035;DHT22;5571;48.110;-1.706;2023-06-26T10:09:08;23.10;99.90
11035;DHT22;5571;48.110;-1.706;2023-06-26T10:11:43;23.30;99.90
11035;DHT22;5571;48.110;-1.706;2023-06-26T10:14:11;23.20;99.90
11035;DHT22;5571;48.110;-1.706;2023-06-26T10:16:39;23.00;99.90
11035;DHT22;5571;48.110;-1.706;2023-06-26T10:19:08;22.90;99.90
11035;DHT22;5571;48.110;-1.706;2023-06-26T10:21:37;23.00;99.90
11035;DHT22;5571;48.110;-1.706;2023-06-26T10:24:05;23.00;99.90
11035;DHT22;5571;48.110;-1.706;2023-06-26T10:26:32;22.60;98.80
11035;DHT22;5571;48.110;-1.706;2023-06-26T10:29:00;22.30;99.70
11035;DHT22;5571;48.110;-1.706;2023-06-26T10:31:28;22.30;99.90
11035;DHT22;5571;48.110;-1.706;2023-06-26T10:33:54;22.10;99.50
11035;DHT22;5571;48.110;-1.706;2023-06-26T10:36:28;22.20;99.70
11035;DHT22;5571;48.110;-1.706;2023-06-26T10:39:06;22.40;99.00
11035;DHT22;5571;48.110;-1.706;2023-06-26T10:41:40;22.80;98.70
11035;DHT22;5571;48.110;-1.706;2023-06-26T10:44:10;22.80;99.40
11035;DHT22;5571;48.110;-1.706;2023-06-26T10:46:52;23.10;99.50
11035;DHT22;5571;48.110;-1.706;2023-06-26T10:49:19;23.40;99.10
11035;DHT22;5571;48.110;-1.706;2023-06-26T10:51:51;23.40;98.40
11035;DHT22;5571;48.110;-1.706;2023-06-26T10:54:18;23.50;98.90
11035;DHT22;5571;48.110;-1.706;2023-06-26T10:56:45;23.40;98.40
11035;DHT22;5571;48.110;-1.706;2023-06-26T10:59:21;23.30;98.20
11035;DHT22;5571;48.110;-1.706;2023-06-26T11:01:57;23.40;99.30
11035;DHT22;5571;48.110;-1.706;2023-06-26T11:04:43;23.30;99.80
11035;DHT22;5571;48.110;-1.706;2023-06-26T11:09:57;23.10;99.90
11035;DHT22;5571;48.110;-1.706;2023-06-26T11:12:37;23.00;99.90
11035;DHT22;5571;48.110;-1.706;2023-06-26T11:15:07;23.30;99.60
11035;DHT22;5571;48.110;-1.706;2023-06-26T11:17:34;23.60;99.20
11035;DHT22;5571;48.110;-1.706;2023-06-26T11:20:00;23.70;98.90
11035;DHT22;5571;48.110;-1.706;2023-06-26T11:22:26;23.80;98.90
11035;DHT22;5571;48.110;-1.706;2023-06-26T11:24:53;24.00;99.40
11035;DHT22;5571;48.110;-1.706;2023-06-26T11:27:19;24.30;99.30
11035;DHT22;5571;48.110;-1.706;2023-06-26T11:29:49;24.30;99.10
11035;DHT22;5571;48.110;-1.706;2023-06-26T11:32:17;24.30;98.50
11035;DHT22;5571;48.110;-1.706;2023-06-26T11:34:42;24.00;98.70
11035;DHT22;5571;48.110;-1.706;2023-06-26T11:37:09;24.00;98.70
11035;DHT22;5571;48.110;-1.706;2023-06-26T11:39:35;24.00;97.80
11035;DHT22;5571;48.110;-1.706;2023-06-26T11:42:02;24.20;98.10
11035;DHT22;5571;48.110;-1.706;2023-06-26T11:44:29;24.50;97.60
11035;DHT22;5571;48.110;-1.706;2023-06-26T11:46:56;24.80;97.50
11035;DHT22;5571;48.110;-1.706;2023-06-26T11:49:22;25.00;97.90
11035;DHT22;5571;48.110;-1.706;2023-06-26T11:51:51;25.00;97.20
11035;DHT22;5571;48.110;-1.706;2023-06-26T11:54:23;24.80;96.80
11035;DHT22;5571;48.110;-1.706;2023-06-26T11:56:55;24.70;97.00
11035;DHT22;5571;48.110;-1.706;2023-06-26T11:59:22;24.50;97.20
11035;DHT22;5571;48.110;-1.706;2023-06-26T12:01:49;24.30;97.50
11035;DHT22;5571;48.110;-1.706;2023-06-26T12:04:17;24.40;97.80
11035;DHT22;5571;48.110;-1.706;2023-06-26T12:06:50;24.60;97.90
11035;DHT22;5571;48.110;-1.706;2023-06-26T12:09:18;24.60;96.90
11035;DHT22;5571;48.110;-1.706;2023-06-26T12:11:45;24.60;97.20
11035;DHT22;5571;48.110;-1.706;2023-06-26T12:14:13;24.90;96.80
11035;DHT22;5571;48.110;-1.706;2023-06-26T12:16:40;24.60;96.60
11035;DHT22;5571;48.110;-1.706;2023-06-26T12:19:07;24.60;96.60
11035;DHT22;5571;48.110;-1.706;2023-06-26T12:24:16;25.40;96.30
11035;DHT22;5571;48.110;-1.706;2023-06-26T12:26:43;25.40;94.90
11035;DHT22;5571;48.110;-1.706;2023-06-26T12:29:14;25.70;95.20
11035;DHT22;5571;48.110;-1.706;2023-06-26T12:31:49;25.90;94.60
11035;DHT22;5571;48.110;-1.706;2023-06-26T12:34:18;25.50;93.60
11035;DHT22;5571;48.110;-1.706;2023-06-26T12:36:51;25.80;93.80
11035;DHT22;5571;48.110;-1.706;2023-06-26T12:39:18;26.10;94.40
11035;DHT22;5571;48.110;-1.706;2023-06-26T12:41:54;26.30;93.90
11035;DHT22;5571;48.110;-1.706;2023-06-26T12:44:27;26.10;93.70
11035;DHT22;5571;48.110;-1.706;2023-06-26T12:47:00;26.20;93.80
11035;DHT22;5571;48.110;-1.706;2023-06-26T12:49:36;26.30;93.10
11035;DHT22;5571;48.110;-1.706;2023-06-26T12:52:05;26.10;92.60
11035;DHT22;5571;48.110;-1.706;2023-06-26T12:54:30;26.10;92.40
11035;DHT22;5571;48.110;-1.706;2023-06-26T12:56:57;25.90;92.70
11035;DHT22;5571;48.110;-1.706;2023-06-26T12:59:23;26.10;93.10
11035;DHT22;5571;48.110;-1.706;2023-06-26T13:01:49;26.20;93.70
11035;DHT22;5571;48.110;-1.706;2023-06-26T13:04:15;26.70;93.30
11035;DHT22;5571;48.110;-1.706;2023-06-26T13:06:40;26.60;91.70
11035;DHT22;5571;48.110;-1.706;2023-06-26T13:09:06;26.40;92.00
11035;DHT22;5571;48.110;-1.706;2023-06-26T13:11:33;26.50;92.60
11035;DHT22;5571;48.110;-1.706;2023-06-26T13:13:59;26.80;93.10
11035;DHT22;5571;48.110;-1.706;2023-06-26T13:16:25;27.20;92.50
11035;DHT22;5571;48.110;-1.706;2023-06-26T13:18:50;27.20;91.70
11035;DHT22;5571;48.110;-1.706;2023-06-26T13:21:16;27.20;92.60
11035;DHT22;5571;48.110;-1.706;2023-06-26T13:23:43;27.40;92.40
11035;DHT22;5571;48.110;-1.706;2023-06-26T13:26:09;27.60;91.90
11035;DHT22;5571;48.110;-1.706;2023-06-26T13:28:35;27.60;91.40
11035;DHT22;5571;48.110;-1.706;2023-06-26T13:31:02;27.70;91.50
11035;DHT22;5571;48.110;-1.706;2023-06-26T13:33:28;27.20;91.70
11035;DHT22;5571;48.110;-1.706;2023-06-26T13:35:54;26.90;92.20
11035;DHT22;5571;48.110;-1.706;2023-06-26T13:38:23;26.60;92.20
11035;DHT22;5571;48.110;-1.706;2023-06-26T13:40:52;26.60;91.90
11035;DHT22;5571;48.110;-1.706;2023-06-26T13:43:18;26.80;92.00
11035;DHT22;5571;48.110;-1.706;2023-06-26T13:45:44;26.60;91.90
11035;DHT22;5571;48.110;-1.706;2023-06-26T13:48:10;26.80;91.70
11035;DHT22;5571;48.110;-1.706;2023-06-26T13:50:35;26.80;91.60
11035;DHT22;5571;48.110;-1.706;2023-06-26T13:53:01;26.80;91.10
11035;DHT22;5571;48.110;-1.706;2023-06-26T13:55:27;26.50;91.90
11035;DHT22;5571;48.110;-1.706;2023-06-26T13:57:53;26.50;91.80
11035;DHT22;5571;48.110;-1.706;2023-06-26T14:00:18;26.70;91.70
11035;DHT22;5571;48.110;-1.706;2023-06-26T14:02:47;26.70;92.00
11035;DHT22;5571;48.110;-1.706;2023-06-26T14:05:12;27.00;91.90
11035;DHT22;5571;48.110;-1.706;2023-06-26T14:07:39;27.30;92.00
11035;DHT22;5571;48.110;-1.706;2023-06-26T14:10:05;26.90;91.80
11035;DHT22;5571;48.110;-1.706;2023-06-26T14:12:32;27.00;92.20
11035;DHT22;5571;48.110;-1.706;2023-06-26T14:14:58;27.30;91.90
11035;DHT22;5571;48.110;-1.706;2023-06-26T14:17:23;27.30;91.90
11035;DHT22;5571;48.110;-1.706;2023-06-26T14:19:51;27.30;91.90
11035;DHT22;5571;48.110;-1.706;2023-06-26T14:22:17;27.10;92.00
11035;DHT22;5571;48.110;-1.706;2023-06-26T14:24:43;27.00;92.10
11035;DHT22;5571;48.110;-1.706;2023-06-26T14:27:08;27.20;92.20
11035;DHT22;5571;48.110;-1.706;2023-06-26T14:29:36;27.40;92.30
11035;DHT22;5571;48.110;-1.706;2023-06-26T14:32:02;27.80;92.30
11035;DHT22;5571;48.110;-1.706;2023-06-26T14:34:28;27.80;92.40
11035;DHT22;5571;48.110;-1.706;2023-06-26T14:36:53;27.10;92.20
11035;DHT22;5571;48.110;-1.706;2023-06-26T14:39:19;26.90;92.70
11035;DHT22;5571;48.110;-1.706;2023-06-26T14:41:45;26.80;92.60
11035;DHT22;5571;48.110;-1.706;2023-06-26T14:44:10;26.90;92.70
11035;DHT22;5571;48.110;-1.706;2023-06-26T14:46:36;26.80;92.10
11035;DHT22;5571;48.110;-1.706;2023-06-26T14:49:02;26.80;92.30
11035;DHT22;5571;48.110;-1.706;2023-06-26T14:51:28;26.90;92.80
11035;DHT22;5571;48.110;-1.706;2023-06-26T14:53:54;26.90;93.30
11035;DHT22;5571;48.110;-1.706;2023-06-26T14:56:20;26.90;93.10
11035;DHT22;5571;48.110;-1.706;2023-06-26T14:58:46;26.80;93.10
11035;DHT22;5571;48.110;-1.706;2023-06-26T15:01:14;26.70;92.90
11035;DHT22;5571;48.110;-1.706;2023-06-26T15:03:45;27.00;92.90
11035;DHT22;5571;48.110;-1.706;2023-06-26T15:06:11;27.00;92.40
11035;DHT22;5571;48.110;-1.706;2023-06-26T15:08:36;26.70;92.50
11035;DHT22;5571;48.110;-1.706;2023-06-26T15:11:02;26.80;92.20
11035;DHT22;5571;48.110;-1.706;2023-06-26T15:13:28;26.70;92.80
11035;DHT22;5571;48.110;-1.706;2023-06-26T15:15:54;26.70;93.10
11035;DHT22;5571;48.110;-1.706;2023-06-26T15:18:19;26.70;93.20
11035;DHT22;5571;48.110;-1.706;2023-06-26T15:20:45;26.80;92.90
11035;DHT22;5571;48.110;-1.706;2023-06-26T15:23:11;26.70;92.70
11035;DHT22;5571;48.110;-1.706;2023-06-26T15:25:37;26.90;92.70
11035;DHT22;5571;48.110;-1.706;2023-06-26T15:28:03;27.10;92.70
11035;DHT22;5571;48.110;-1.706;2023-06-26T15:30:29;27.30;92.90
11035;DHT22;5571;48.110;-1.706;2023-06-26T15:32:54;27.10;92.90
11035;DHT22;5571;48.110;-1.706;2023-06-26T15:35:20;27.10;92.90
11035;DHT22;5571;48.110;-1.706;2023-06-26T15:37:46;27.20;93.60
11035;DHT22;5571;48.110;-1.706;2023-06-26T15:40:12;27.20;94.10